createdAt,value
2019-02-19T00:00:07.282Z,196.57
2019-02-19T00:02:36.709Z,195.70
2019-02-19T00:05:06.038Z,196.70
2019-02-19T00:07:35.505Z,202.80
2019-02-19T00:10:05.282Z,199.90
2019-02-19T00:12:34.828Z,206.83
2019-02-19T00:15:08.399Z,202.37
2019-02-19T00:17:35.566Z,194.27
2019-02-19T00:20:04.940Z,198.07
2019-02-19T00:22:34.383Z,234.23
2019-02-19T00:25:03.717Z,208.97
2019-02-19T00:27:33.018Z,207.40
2019-02-19T00:30:02.367Z,205.50
2019-02-19T00:32:31.728Z,201.80
2019-02-19T00:35:01.194Z,199.83
2019-02-19T00:37:30.882Z,219.27
2019-02-19T00:40:00.439Z,205.53
2019-02-19T00:42:30.050Z,188.87
2019-02-19T00:44:59.516Z,207.67
2019-02-19T00:47:28.949Z,187.63
2019-02-19T00:49:58.295Z,184.67
2019-02-19T00:52:27.773Z,203.40
2019-02-19T00:54:57.198Z,204.80
2019-02-19T00:57:26.639Z,194.07
2019-02-19T00:59:56.003Z,202.90
2019-02-19T01:02:25.427Z,215.00
2019-02-19T01:04:54.779Z,303.17
2019-02-19T01:07:24.261Z,220.20
2019-02-19T01:09:53.579Z,227.50
2019-02-19T01:12:23.500Z,212.80
2019-02-19T01:14:52.953Z,206.60
2019-02-19T01:17:22.330Z,204.47
2019-02-19T01:19:51.694Z,198.37
2019-02-19T01:22:21.162Z,212.47
2019-02-19T01:24:50.497Z,210.63
2019-02-19T01:27:19.955Z,209.80
2019-02-19T01:29:49.311Z,201.50
2019-02-19T01:32:18.777Z,221.07
2019-02-19T01:34:48.157Z,231.50
2019-02-19T01:37:17.557Z,204.17
2019-02-19T01:39:47.911Z,217.27
2019-02-19T01:42:17.409Z,219.47
2019-02-19T01:44:46.947Z,210.17
2019-02-19T01:47:16.339Z,209.77
2019-02-19T01:49:45.765Z,205.00
2019-02-19T01:52:15.203Z,187.07
2019-02-19T01:54:44.575Z,208.27
2019-02-19T01:57:14.010Z,196.23
2019-02-19T01:59:43.367Z,192.87
2019-02-19T02:02:12.832Z,193.20
2019-02-19T02:04:42.171Z,197.73
2019-02-19T02:07:11.557Z,187.77
2019-02-19T02:09:41.034Z,185.43
2019-02-19T02:12:10.428Z,185.03
2019-02-19T02:14:39.829Z,201.93
2019-02-19T02:17:09.183Z,201.07
2019-02-19T02:19:38.898Z,199.23
2019-02-19T02:22:08.381Z,210.23
2019-02-19T02:24:37.774Z,201.30
2019-02-19T02:27:07.292Z,200.47
2019-02-19T02:29:36.751Z,218.77
2019-02-19T02:32:06.101Z,218.90
2019-02-19T02:34:35.565Z,209.77
2019-02-19T02:37:04.932Z,223.80
2019-02-19T02:39:34.393Z,219.37
2019-02-19T02:42:03.838Z,224.43
2019-02-19T02:44:33.285Z,237.07
2019-02-19T02:47:02.609Z,229.67
2019-02-19T02:49:32.109Z,232.07
2019-02-19T02:52:01.714Z,226.60
2019-02-19T02:54:31.169Z,234.57
2019-02-19T02:57:00.553Z,217.07
2019-02-19T02:59:29.929Z,194.00
2019-02-19T03:01:59.389Z,200.67
2019-02-19T03:04:28.721Z,219.23
2019-02-19T03:07:12.254Z,207.23
2019-02-19T03:09:41.666Z,189.40
2019-02-19T03:12:11.118Z,196.60
2019-02-19T03:14:40.462Z,180.83
2019-02-19T03:17:09.952Z,151.37
2019-02-19T03:19:39.425Z,140.97
2019-02-19T03:22:09.291Z,159.37
2019-02-19T03:24:38.693Z,129.90
2019-02-19T03:27:08.156Z,120.83
2019-02-19T03:29:37.483Z,102.90
2019-02-19T03:32:06.901Z,115.67
2019-02-19T03:34:36.483Z,138.83
2019-02-19T03:37:06.029Z,123.53
2019-02-19T03:39:35.504Z,126.13
2019-02-19T03:42:05.125Z,128.37
2019-02-19T03:44:34.523Z,131.30
2019-02-19T03:47:04.125Z,155.33
2019-02-19T03:49:33.535Z,140.53
2019-02-19T03:52:02.998Z,131.27
2019-02-19T03:54:32.339Z,144.67
2019-02-19T03:57:01.803Z,135.73
2019-02-19T03:59:31.293Z,170.57
2019-02-19T04:02:00.802Z,194.60
2019-02-19T04:04:30.507Z,196.97
2019-02-19T04:06:59.874Z,206.40
2019-02-19T04:09:29.253Z,225.40
2019-02-19T04:11:58.700Z,190.63
2019-02-19T04:14:28.250Z,174.10
2019-02-19T04:16:57.768Z,161.87
2019-02-19T04:19:27.178Z,197.40
2019-02-19T04:21:56.623Z,204.47
2019-02-19T04:24:26.040Z,216.73
2019-02-19T04:26:55.354Z,237.87
2019-02-19T04:29:24.801Z,208.77
2019-02-19T04:31:54.235Z,225.97
2019-02-19T04:34:23.769Z,207.73
2019-02-19T04:36:53.271Z,237.80
2019-02-19T04:39:22.662Z,212.07
2019-02-19T04:41:52.117Z,219.27
2019-02-19T04:44:21.495Z,240.03
2019-02-19T04:46:51.094Z,242.40
2019-02-19T04:49:20.547Z,251.83
2019-02-19T04:51:49.920Z,231.33
2019-02-19T04:54:19.376Z,235.90
2019-02-19T04:56:48.713Z,232.23
2019-02-19T04:59:18.138Z,241.87
2019-02-19T05:01:47.575Z,223.13
2019-02-19T05:04:17.037Z,240.03
2019-02-19T05:06:46.373Z,247.07
2019-02-19T05:09:15.877Z,221.43
2019-02-19T05:11:45.220Z,237.00
2019-02-19T05:14:14.673Z,250.33
2019-02-19T05:16:44.218Z,246.23
2019-02-19T05:19:13.653Z,235.03
2019-02-19T05:21:43.066Z,239.63
2019-02-19T05:24:12.456Z,226.13
2019-02-19T05:26:41.821Z,230.97
2019-02-19T05:29:11.487Z,226.43
2019-02-19T05:31:40.955Z,228.67
2019-02-19T05:34:10.438Z,231.47
2019-02-19T05:36:40.023Z,235.20
2019-02-19T05:39:09.558Z,223.20
2019-02-19T05:41:38.969Z,235.67
2019-02-19T05:44:08.415Z,221.13
2019-02-19T05:46:37.843Z,228.07
2019-02-19T05:49:07.199Z,224.23
2019-02-19T05:51:36.610Z,240.00
2019-02-19T05:54:05.998Z,222.87
2019-02-19T05:56:35.393Z,249.70
2019-02-19T05:59:04.854Z,225.87
2019-02-19T06:01:34.222Z,236.13
2019-02-19T06:04:03.573Z,252.30
2019-02-19T06:06:33.034Z,246.33
2019-02-19T06:09:02.421Z,238.53
2019-02-19T06:11:31.816Z,212.03
2019-02-19T06:14:01.269Z,230.23
2019-02-19T06:16:30.710Z,199.97
2019-02-19T06:19:00.046Z,202.57
2019-02-19T06:21:29.590Z,216.07
2019-02-19T06:23:59.078Z,231.27
2019-02-19T06:26:28.402Z,220.40
2019-02-19T06:28:57.969Z,214.63
2019-02-19T06:31:27.483Z,198.73
2019-02-19T06:33:56.830Z,195.40
2019-02-19T06:36:26.255Z,218.83
2019-02-19T06:38:55.664Z,224.17
2019-02-19T06:41:25.164Z,209.83
2019-02-19T06:43:54.512Z,195.83
2019-02-19T06:46:23.991Z,193.53
2019-02-19T06:48:53.380Z,196.83
2019-02-19T06:51:22.774Z,212.90
2019-02-19T06:53:52.127Z,219.17
2019-02-19T06:56:21.526Z,230.53
2019-02-19T06:58:51.006Z,289.43
2019-02-19T07:01:28.577Z,255.27
2019-02-19T07:04:05.455Z,245.60
2019-02-19T07:06:34.838Z,237.93
2019-02-19T07:09:04.757Z,238.53
2019-02-19T07:11:34.398Z,185.70
2019-02-19T07:14:03.766Z,179.60
2019-02-19T07:16:33.331Z,187.80
2019-02-19T07:19:02.794Z,192.10
2019-02-19T07:21:32.166Z,215.13
2019-02-19T07:24:04.474Z,178.10
2019-02-19T07:26:32.747Z,142.60
2019-02-19T07:29:02.069Z,149.90
2019-02-19T07:31:31.547Z,123.60
2019-02-19T07:34:01.036Z,165.20
2019-02-19T07:36:30.341Z,149.53
2019-02-19T07:38:59.852Z,169.60
2019-02-19T07:41:29.248Z,176.03
2019-02-19T07:43:58.604Z,173.17
2019-02-19T07:46:28.072Z,161.97
2019-02-19T07:48:57.426Z,151.90
2019-02-19T07:51:26.842Z,140.50
2019-02-19T07:53:56.354Z,161.37
2019-02-19T07:56:25.778Z,147.33
2019-02-19T07:58:55.134Z,144.67
2019-02-19T08:01:24.593Z,133.23
2019-02-19T08:03:53.907Z,119.70
2019-02-19T08:06:23.369Z,119.10
2019-02-19T08:08:52.697Z,138.50
2019-02-19T08:11:22.081Z,128.77
2019-02-19T08:13:51.411Z,102.17
2019-02-19T08:16:20.855Z,107.17
2019-02-19T08:18:50.263Z,94.73
2019-02-19T08:21:19.697Z,115.30
2019-02-19T08:23:49.118Z,88.73
2019-02-19T08:26:18.727Z,86.53
2019-02-19T08:28:48.163Z,98.77
2019-02-19T08:31:17.630Z,94.13
2019-02-19T08:33:47.233Z,103.73
2019-02-19T08:36:16.702Z,49.53
2019-02-19T08:38:46.037Z,98.70
2019-02-19T08:41:15.532Z,90.70
2019-02-19T08:43:44.970Z,89.27
2019-02-19T08:46:14.345Z,99.20
2019-02-19T08:48:43.847Z,84.40
2019-02-19T08:51:13.068Z,90.03
2019-02-19T08:53:42.460Z,87.13
2019-02-19T08:56:11.882Z,85.37
2019-02-19T08:58:41.242Z,74.20
2019-02-19T09:01:10.639Z,81.80
2019-02-19T09:03:40.024Z,65.07
2019-02-19T09:06:09.542Z,55.27
2019-02-19T09:08:38.864Z,76.83
2019-02-19T09:11:11.426Z,56.27
2019-02-19T09:13:40.777Z,57.03
2019-02-19T09:16:10.178Z,66.57
2019-02-19T09:18:39.578Z,58.13
2019-02-19T09:21:08.944Z,65.03
2019-02-19T09:23:38.356Z,66.53
2019-02-19T09:26:07.755Z,66.93
2019-02-19T09:28:37.199Z,59.97
2019-02-19T09:31:06.585Z,53.67
2019-02-19T09:33:38.289Z,59.93
2019-02-19T09:36:07.816Z,60.30
2019-02-19T09:38:37.204Z,60.23
2019-02-19T09:41:06.510Z,60.27
2019-02-19T09:43:35.969Z,68.13
2019-02-19T09:46:05.309Z,58.60
2019-02-19T09:48:34.766Z,73.00
2019-02-19T09:51:04.122Z,56.97
2019-02-19T09:53:33.573Z,63.23
2019-02-19T09:56:02.982Z,62.23
2019-02-19T09:58:32.402Z,56.97
2019-02-19T10:01:01.933Z,63.63
2019-02-19T10:03:31.373Z,70.87
2019-02-19T10:06:00.798Z,56.57
2019-02-19T10:08:30.126Z,60.40
2019-02-19T10:10:59.494Z,61.37
2019-02-19T10:13:28.848Z,62.33
2019-02-19T10:15:58.560Z,64.53
2019-02-19T10:18:27.958Z,55.47
2019-02-19T10:20:57.358Z,48.67
2019-02-19T10:23:27.158Z,50.30
2019-02-19T10:25:56.575Z,57.50
2019-02-19T10:28:26.037Z,51.33
2019-02-19T10:30:55.374Z,40.60
2019-02-19T10:33:24.852Z,33.00
2019-02-19T10:35:54.270Z,60.33
2019-02-19T10:38:23.723Z,52.63
2019-02-19T10:40:53.137Z,58.10
2019-02-19T10:43:23.517Z,52.10
2019-02-19T10:45:53.185Z,52.67
2019-02-19T10:48:22.612Z,37.73
2019-02-19T10:50:52.018Z,47.77
2019-02-19T10:53:21.446Z,47.63
2019-02-19T10:55:50.874Z,36.90
2019-02-19T10:58:22.902Z,43.47
2019-02-19T11:00:51.474Z,42.13
2019-02-19T11:03:21.073Z,39.97
2019-02-19T11:05:51.499Z,44.83
2019-02-19T11:08:20.934Z,37.93
2019-02-19T11:10:50.896Z,40.50
2019-02-19T11:13:20.464Z,39.90
2019-02-19T11:15:49.886Z,34.80
2019-02-19T11:18:27.850Z,28.93
2019-02-19T11:20:50.581Z,37.43
2019-02-19T11:23:19.945Z,35.33
2019-02-19T11:25:49.355Z,39.83
2019-02-19T11:28:18.863Z,39.50
2019-02-19T11:30:48.268Z,33.87
2019-02-19T11:33:17.626Z,38.00
2019-02-19T11:35:47.031Z,37.37
2019-02-19T11:38:16.446Z,30.63
2019-02-19T11:40:45.874Z,36.30
2019-02-19T11:43:15.326Z,37.20
2019-02-19T11:45:44.694Z,26.53
2019-02-19T11:48:14.191Z,35.80
2019-02-19T11:50:43.682Z,31.43
2019-02-19T11:53:13.138Z,36.17
2019-02-19T11:55:42.672Z,37.47
2019-02-19T11:58:12.120Z,33.50
2019-02-19T12:00:42.351Z,30.33
2019-02-19T12:03:11.698Z,29.50
2019-02-19T12:05:41.138Z,34.87
2019-02-19T12:08:10.544Z,37.80
2019-02-19T12:10:40.143Z,32.70
2019-02-19T12:13:10.753Z,34.97
2019-02-19T12:15:40.121Z,32.30
2019-02-19T12:18:09.477Z,37.57
2019-02-19T12:20:38.955Z,34.27
2019-02-19T12:23:08.331Z,36.33
2019-02-19T12:25:37.737Z,36.40
2019-02-19T12:28:07.082Z,35.00
2019-02-19T12:30:36.542Z,35.90
2019-02-19T12:33:05.898Z,34.47
2019-02-19T12:35:35.448Z,43.97
2019-02-19T12:38:04.965Z,44.10
2019-02-19T12:40:34.401Z,41.33
2019-02-19T12:43:03.842Z,36.67
2019-02-19T12:45:33.306Z,38.30
2019-02-19T12:48:02.718Z,34.20
2019-02-19T12:50:32.310Z,37.00
2019-02-19T12:53:01.713Z,37.67
2019-02-19T12:55:31.153Z,38.90
2019-02-19T12:58:00.528Z,38.50
2019-02-19T13:00:29.970Z,33.83
2019-02-19T13:02:59.342Z,35.47
2019-02-19T13:05:28.763Z,34.70
2019-02-19T13:07:58.234Z,42.33
2019-02-19T13:10:27.683Z,43.90
2019-02-19T13:12:57.065Z,36.57
2019-02-19T13:15:26.444Z,33.93
2019-02-19T13:17:55.906Z,39.40
2019-02-19T13:20:25.299Z,37.13
2019-02-19T13:22:54.639Z,36.90
2019-02-19T13:25:24.074Z,40.43
2019-02-19T13:27:53.482Z,36.63
2019-02-19T13:30:22.874Z,38.00
2019-02-19T13:32:52.381Z,37.07
2019-02-19T13:35:21.954Z,40.90
2019-02-19T13:37:53.593Z,36.70
2019-02-19T13:40:22.898Z,41.30
2019-02-19T13:42:52.524Z,41.00
2019-02-19T13:45:21.909Z,38.00
2019-02-19T13:47:51.226Z,40.73
2019-02-19T13:50:21.138Z,41.23
2019-02-19T13:53:21.687Z,41.60
2019-02-19T13:55:53.897Z,39.20
2019-02-19T13:58:23.294Z,42.30
2019-02-19T14:00:52.719Z,41.03
2019-02-19T14:03:22.145Z,38.13
2019-02-19T14:05:51.542Z,45.10
2019-02-19T14:08:20.966Z,39.43
2019-02-19T14:10:50.342Z,40.67
2019-02-19T14:13:19.782Z,40.97
2019-02-19T14:16:05.138Z,41.17
2019-02-19T14:19:05.526Z,39.47
2019-02-19T14:21:55.942Z,41.43
2019-02-19T14:24:42.958Z,44.10
2019-02-19T14:27:34.135Z,44.70
2019-02-19T14:30:22.465Z,42.97
2019-02-19T14:33:20.026Z,46.37
2019-02-19T14:36:06.732Z,45.17
2019-02-19T14:38:59.718Z,37.50
2019-02-19T14:41:46.934Z,38.80
2019-02-19T14:44:47.762Z,37.43
2019-02-19T14:47:35.154Z,45.20
2019-02-19T14:50:23.737Z,42.10
2019-02-19T14:53:17.806Z,40.63
2019-02-19T14:56:06.153Z,40.27
2019-02-19T14:59:06.502Z,45.87
2019-02-19T15:01:59.291Z,35.80
2019-02-19T15:05:03.018Z,46.73
2019-02-19T15:07:51.383Z,44.67
2019-02-19T15:10:54.871Z,45.27
2019-02-19T15:13:55.694Z,48.90
2019-02-19T15:16:56.354Z,53.57
2019-02-19T15:19:39.073Z,44.60
2019-02-19T15:22:17.817Z,50.13
2019-02-19T15:25:24.718Z,45.30
2019-02-19T15:28:22.163Z,45.43
2019-02-19T15:31:22.397Z,47.53
2019-02-19T15:34:09.381Z,42.93
2019-02-19T15:36:56.582Z,49.03
2019-02-19T15:39:43.622Z,48.93
2019-02-19T15:42:38.203Z,40.30
2019-02-19T15:45:25.522Z,51.60
2019-02-19T15:48:19.257Z,48.87
2019-02-19T15:51:05.950Z,48.07
2019-02-19T15:53:57.061Z,52.77
2019-02-19T15:56:44.290Z,47.20
2019-02-19T15:59:44.794Z,47.37
2019-02-19T16:02:42.175Z,51.53
2019-02-19T16:05:17.317Z,53.20
2019-02-19T16:08:05.745Z,45.53
2019-02-19T16:10:52.933Z,48.80
2019-02-19T16:13:31.235Z,56.23
2019-02-19T16:16:25.704Z,53.70
2019-02-19T16:19:13.130Z,49.03
2019-02-19T16:21:49.158Z,47.47
2019-02-19T16:24:36.380Z,52.13
2019-02-19T16:27:36.902Z,52.13
2019-02-19T16:30:12.945Z,53.30
2019-02-19T16:33:01.412Z,53.40
2019-02-19T16:35:37.068Z,55.67
2019-02-19T16:38:17.002Z,52.40
2019-02-19T16:41:08.626Z,61.53
2019-02-19T16:43:55.822Z,52.87
2019-02-19T16:46:38.010Z,59.53
2019-02-19T16:49:44.625Z,53.80
2019-02-19T16:52:48.165Z,63.17
2019-02-19T16:55:32.158Z,70.30
2019-02-19T16:58:15.401Z,76.80
2019-02-19T17:01:02.449Z,59.20
2019-02-19T17:03:44.462Z,52.67
2019-02-19T17:06:19.843Z,52.47
2019-02-19T17:09:05.382Z,55.07
2019-02-19T17:11:53.716Z,53.60
2019-02-19T17:14:48.123Z,58.30
2019-02-19T17:17:37.038Z,54.97
2019-02-19T17:20:28.541Z,49.43
2019-02-19T17:23:07.350Z,55.73
2019-02-19T17:26:02.084Z,63.90
2019-02-19T17:29:05.877Z,73.07
2019-02-19T17:31:57.286Z,58.47
2019-02-19T17:34:48.359Z,61.50
2019-02-19T17:37:25.467Z,64.50
2019-02-19T17:40:09.082Z,67.70
2019-02-19T17:43:09.630Z,77.50
2019-02-19T17:46:02.040Z,70.07
2019-02-19T17:48:46.750Z,66.40
2019-02-19T17:51:25.931Z,58.53
2019-02-19T17:54:28.565Z,76.27
2019-02-19T17:57:06.971Z,69.90
2019-02-19T18:00:02.194Z,60.97
2019-02-19T18:02:56.566Z,74.17
2019-02-19T18:05:47.810Z,73.23
2019-02-19T18:08:32.798Z,64.60
2019-02-19T18:11:33.214Z,71.77
2019-02-19T18:14:14.810Z,67.90
2019-02-19T18:17:06.166Z,68.20
2019-02-19T18:19:35.606Z,70.43
2019-02-19T18:22:05.031Z,74.87
2019-02-19T18:24:34.472Z,76.17
2019-02-19T18:27:03.901Z,81.07
2019-02-19T18:29:33.473Z,81.87
2019-02-19T18:32:02.967Z,56.53
2019-02-19T18:34:32.331Z,73.07
2019-02-19T18:37:01.771Z,77.67
2019-02-19T18:39:31.157Z,69.03
2019-02-19T18:42:00.513Z,77.47
2019-02-19T18:44:30.011Z,65.40
2019-02-19T18:46:59.454Z,78.33
2019-02-19T18:49:28.888Z,76.60
2019-02-19T18:51:58.219Z,86.43
2019-02-19T18:54:27.686Z,75.87
2019-02-19T18:56:57.039Z,80.10
2019-02-19T18:59:26.510Z,84.37
2019-02-19T19:01:55.938Z,87.87
2019-02-19T19:04:25.386Z,82.30
2019-02-19T19:06:55.047Z,86.43
2019-02-19T19:09:24.550Z,84.47
2019-02-19T19:11:54.278Z,79.93
2019-02-19T19:14:23.726Z,78.07
2019-02-19T19:16:53.155Z,77.03
2019-02-19T19:19:22.644Z,76.30
2019-02-19T19:21:52.168Z,79.03
2019-02-19T19:24:21.690Z,73.90
2019-02-19T19:26:51.194Z,74.93
2019-02-19T19:29:20.752Z,65.90
2019-02-19T19:31:50.381Z,69.87
2019-02-19T19:34:19.943Z,60.23
2019-02-19T19:36:49.366Z,61.93
2019-02-19T19:39:21.970Z,56.20
2019-02-19T19:41:51.536Z,55.07
2019-02-19T19:44:21.001Z,59.10
2019-02-19T19:46:50.502Z,52.67
2019-02-19T19:49:19.970Z,57.33
2019-02-19T19:51:49.454Z,54.87
2019-02-19T19:54:19.081Z,51.10
2019-02-19T19:56:48.573Z,54.77
2019-02-19T19:59:18.018Z,54.20
2019-02-19T20:01:47.684Z,55.90
2019-02-19T20:04:18.310Z,69.17
2019-02-19T20:06:47.742Z,52.60
2019-02-19T20:09:17.530Z,55.87
2019-02-19T20:11:47.126Z,35.27
2019-02-19T20:14:16.673Z,45.97
2019-02-19T20:16:46.219Z,55.47
2019-02-19T20:19:15.714Z,57.03
2019-02-19T20:21:45.407Z,46.23
2019-02-19T20:24:15.249Z,61.90
2019-02-19T20:26:44.904Z,33.17
2019-02-19T20:29:14.541Z,31.53
2019-02-19T20:31:44.175Z,48.37
2019-02-19T20:34:13.843Z,54.57
2019-02-19T20:36:43.324Z,51.37
2019-02-19T20:39:13.116Z,28.90
2019-02-19T20:41:42.803Z,64.07
2019-02-19T20:44:12.592Z,53.90
2019-02-19T20:46:42.484Z,66.40
2019-02-19T20:49:12.066Z,53.53
2019-02-19T20:51:41.638Z,58.63
2019-02-19T20:54:11.306Z,61.20
2019-02-19T20:56:40.969Z,56.33
2019-02-19T20:59:10.622Z,63.17
2019-02-19T21:01:40.513Z,65.00
2019-02-19T21:04:10.050Z,67.57
2019-02-19T21:06:39.938Z,65.87
2019-02-19T21:09:09.537Z,67.27
2019-02-19T21:11:39.270Z,65.17
2019-02-19T21:14:08.642Z,70.63
2019-02-19T21:16:38.351Z,62.03
2019-02-19T21:19:07.859Z,64.83
2019-02-19T21:21:44.739Z,57.83
2019-02-19T21:24:08.653Z,64.30
2019-02-19T21:26:38.342Z,62.87
2019-02-19T21:29:07.766Z,70.53
2019-02-19T21:31:37.250Z,65.50
2019-02-19T21:34:06.778Z,68.77
2019-02-19T21:36:36.244Z,69.67
2019-02-19T21:39:07.150Z,66.37
2019-02-19T21:41:36.786Z,74.13
2019-02-19T21:44:06.178Z,79.70
2019-02-19T21:46:35.827Z,72.43
2019-02-19T21:49:05.423Z,87.00
2019-02-19T21:51:34.925Z,76.20
2019-02-19T21:54:04.281Z,71.70
2019-02-19T21:56:33.753Z,79.83
2019-02-19T21:59:03.093Z,78.73
2019-02-19T22:01:32.387Z,70.30
2019-02-19T22:04:01.732Z,68.33
2019-02-19T22:06:31.150Z,64.43
2019-02-19T22:09:00.598Z,63.10
2019-02-19T22:11:29.937Z,56.13
2019-02-19T22:13:59.358Z,56.40
2019-02-19T22:16:28.914Z,52.80
2019-02-19T22:18:58.428Z,55.57
2019-02-19T22:21:45.306Z,58.30
2019-02-19T22:24:16.342Z,49.90
2019-02-19T22:26:45.718Z,51.47
2019-02-19T22:29:15.126Z,47.73
2019-02-19T22:31:44.569Z,54.77
2019-02-19T22:34:14.075Z,48.07
2019-02-19T22:36:43.444Z,52.87
2019-02-19T22:39:12.910Z,51.23
2019-02-19T22:41:42.340Z,50.67
2019-02-19T22:44:11.690Z,62.30
2019-02-19T22:46:41.073Z,55.37
2019-02-19T22:49:10.441Z,64.90
2019-02-19T22:51:39.730Z,59.67
2019-02-19T22:54:14.506Z,52.23
2019-02-19T22:56:45.378Z,58.60
2019-02-19T22:59:14.797Z,60.60
2019-02-19T23:02:00.022Z,58.00
2019-02-19T23:04:29.478Z,63.30
2019-02-19T23:06:58.883Z,57.43
2019-02-19T23:09:28.269Z,64.60
2019-02-19T23:11:57.701Z,57.47
2019-02-19T23:14:27.155Z,60.97
2019-02-19T23:16:56.601Z,63.33
2019-02-19T23:19:25.940Z,65.70
2019-02-19T23:21:55.330Z,64.80
2019-02-19T23:24:24.678Z,67.80
2019-02-19T23:26:53.988Z,62.50
2019-02-19T23:29:23.446Z,59.77
2019-02-19T23:31:52.831Z,65.73
2019-02-19T23:34:22.127Z,41.80
2019-02-19T23:37:10.450Z,63.03
2019-02-19T23:39:43.681Z,64.00
2019-02-19T23:42:10.947Z,62.13
2019-02-19T23:44:40.386Z,64.27
2019-02-19T23:47:09.727Z,66.77
2019-02-19T23:49:39.221Z,54.07
2019-02-19T23:52:08.525Z,67.23
2019-02-19T23:54:37.834Z,56.57
2019-02-19T23:57:07.179Z,63.63
2019-02-19T23:59:36.528Z,63.10
